Time;durP1;ratioP1;P1;durP2;ratioP2;P2;SDS_P1;SDS_P2;PMS_P1;PMS_P2;Temp;Humidity;BMP_temperature;BMP_pressure;BME280_temperature;BME280_humidity;BME280_pressure;Samples;Min_cycle;Max_cycle;Signal;HPM_P1;HPM_P2
2022/10/06 00:00:41;;;;;;;4.80;1.30;;;13.90;99.90;;;;;;5074335;28;20068;-71
2022/10/06 00:03:07;;;;;;;5.05;1.33;;;13.90;99.90;;;;;;5074181;28;20059;-71
2022/10/06 00:05:32;;;;;;;6.25;1.35;;;13.90;99.90;;;;;;5074441;28;20041;-71
2022/10/06 00:07:59;;;;;;;8.30;1.63;;;13.80;99.90;;;;;;5074269;28;20037;-72
2022/10/06 00:10:25;;;;;;;6.53;1.10;;;13.80;99.90;;;;;;5074136;28;20032;-71
2022/10/06 00:12:51;;;;;;;5.85;1.08;;;13.80;99.90;;;;;;5073779;28;20043;-71
2022/10/06 00:15:26;;;;;;;5.50;1.42;;;13.70;99.90;;;;;;5072803;28;20040;-71
2022/10/06 00:17:52;;;;;;;4.95;1.48;;;13.80;99.90;;;;;;5074377;28;20111;-71
2022/10/06 00:20:18;;;;;;;7.65;1.45;;;13.60;99.90;;;;;;5074279;28;20068;-70
2022/10/06 00:22:46;;;;;;;9.93;1.33;;;13.80;99.90;;;;;;5073685;28;20032;-71
2022/10/06 00:25:14;;;;;;;5.18;1.23;;;13.80;99.90;;;;;;5073952;28;20037;-71
2022/10/06 00:27:42;;;;;;;7.93;2.15;;;13.70;99.90;;;;;;5073908;28;20082;-71
2022/10/06 00:30:11;;;;;;;7.55;2.40;;;13.60;99.90;;;;;;5074155;28;20044;-71
2022/10/06 00:32:37;;;;;;;9.77;2.25;;;13.60;99.90;;;;;;5073383;28;20409;-71
2022/10/06 00:35:04;;;;;;;9.15;1.25;;;13.60;99.90;;;;;;5072309;28;20489;-71
2022/10/06 00:37:34;;;;;;;10.90;1.67;;;13.70;99.90;;;;;;5055778;28;20379;-71
2022/10/06 00:40:00;;;;;;;11.05;1.95;;;13.60;99.90;;;;;;5073742;28;20109;-71
2022/10/06 00:42:28;;;;;;;7.63;1.60;;;13.60;99.90;;;;;;5071991;28;20072;-71
2022/10/06 00:44:56;;;;;;;10.70;2.28;;;13.60;99.90;;;;;;5072637;28;20044;-71
2022/10/06 00:47:23;;;;;;;9.50;1.85;;;13.60;99.90;;;;;;5072575;28;20040;-71
2022/10/06 00:49:49;;;;;;;9.30;1.50;;;13.60;99.90;;;;;;5073635;28;20576;-71
2022/10/06 00:52:21;;;;;;;5.38;1.67;;;13.40;99.90;;;;;;5073179;28;20418;-71
2022/10/06 00:54:47;;;;;;;9.07;2.33;;;13.50;99.90;;;;;;5073303;28;20072;-73
2022/10/06 00:57:13;;;;;;;7.85;1.92;;;13.50;99.90;;;;;;5073309;28;20538;-71
2022/10/06 00:59:39;;;;;;;7.35;1.60;;;13.40;99.90;;;;;;5073240;28;20028;-71
2022/10/06 01:02:27;;;;;;;4.53;0.90;;;13.40;99.90;;;;;;5073186;28;20493;-71
2022/10/06 01:04:59;;;;;;;7.68;1.23;;;13.30;99.90;;;;;;5073267;28;20045;-71
2022/10/06 01:07:27;;;;;;;8.50;1.48;;;13.50;99.90;;;;;;5073106;28;20118;-71
2022/10/06 01:09:54;;;;;;;9.48;1.67;;;13.40;99.90;;;;;;5071774;28;20048;-71
2022/10/06 01:12:21;;;;;;;8.18;1.85;;;13.20;99.90;;;;;;5072717;28;20042;-71
2022/10/06 01:14:47;;;;;;;6.18;1.50;;;13.30;99.90;;;;;;5072957;28;20047;-71
2022/10/06 01:17:18;;;;;;;9.38;1.50;;;13.30;99.90;;;;;;5071701;28;20406;-71
2022/10/06 01:19:59;;;;;;;7.20;1.42;;;13.20;99.90;;;;;;5072919;28;20044;-71
2022/10/06 01:22:32;;;;;;;6.45;1.27;;;13.30;99.90;;;;;;5071255;28;20052;-71
2022/10/06 01:24:58;;;;;;;11.40;1.70;;;13.20;99.90;;;;;;5072925;28;20037;-71
2022/10/06 01:27:28;;;;;;;12.30;1.77;;;13.10;99.90;;;;;;5072869;28;20111;-71
2022/10/06 01:29:54;;;;;;;9.43;1.85;;;13.10;99.90;;;;;;5072675;28;20048;-71
2022/10/06 01:32:22;;;;;;;12.80;2.10;;;13.20;99.90;;;;;;5072203;28;20422;-71
2022/10/06 01:34:47;;;;;;;11.43;1.85;;;13.10;99.90;;;;;;5072806;28;20119;-71
2022/10/06 01:37:13;;;;;;;12.50;1.98;;;13.10;99.90;;;;;;5072694;28;20115;-71
2022/10/06 01:39:39;;;;;;;6.68;2.03;;;13.10;99.90;;;;;;5072529;28;20401;-71
2022/10/06 01:42:05;;;;;;;13.25;4.13;;;13.20;99.90;;;;;;5072328;28;20044;-71
2022/10/06 01:44:30;;;;;;;20.85;3.35;;;13.00;99.90;;;;;;5072138;28;20136;-71
2022/10/06 01:46:56;;;;;;;8.32;1.60;;;13.00;99.90;;;;;;5070453;28;20098;-71
2022/10/06 01:49:21;;;;;;;10.05;2.47;;;13.00;99.90;;;;;;5072470;28;20131;-71
2022/10/06 01:51:47;;;;;;;7.60;2.00;;;13.10;99.90;;;;;;5072089;28;20075;-71
2022/10/06 01:54:13;;;;;;;8.35;1.92;;;13.10;99.90;;;;;;5072048;28;20079;-71
2022/10/06 01:56:39;;;;;;;6.97;1.92;;;13.00;99.90;;;;;;5070941;28;20047;-71
2022/10/06 01:59:04;;;;;;;11.77;2.45;;;13.10;99.90;;;;;;5072263;28;20033;-72
2022/10/06 02:01:30;;;;;;;11.07;1.88;;;13.00;99.90;;;;;;5071695;28;20395;-71
2022/10/06 02:03:55;;;;;;;8.50;1.85;;;12.90;99.90;;;;;;5071824;28;20489;-71
2022/10/06 02:06:21;;;;;;;10.65;1.83;;;13.00;99.90;;;;;;5072251;28;20036;-71
2022/10/06 02:08:47;;;;;;;7.15;2.20;;;12.90;99.90;;;;;;5072078;28;20052;-72
2022/10/06 02:11:12;;;;;;;7.18;1.70;;;12.90;99.90;;;;;;5071826;28;20044;-71
2022/10/06 02:13:38;;;;;;;7.22;2.35;;;12.90;99.90;;;;;;5070490;28;20036;-71
2022/10/06 02:16:08;;;;;;;8.85;1.90;;;13.00;99.90;;;;;;5071961;28;20048;-71
2022/10/06 02:18:34;;;;;;;8.70;1.88;;;12.80;99.90;;;;;;5072181;28;20039;-71
2022/10/06 02:21:01;;;;;;;8.25;1.92;;;12.80;99.90;;;;;;5072141;28;20036;-71
2022/10/06 02:23:28;;;;;;;9.43;1.73;;;12.90;99.90;;;;;;5071390;28;20520;-71
2022/10/06 02:26:04;;;;;;;9.77;2.25;;;12.90;99.90;;;;;;5070771;28;20056;-71
2022/10/06 02:28:30;;;;;;;11.35;2.15;;;12.80;99.90;;;;;;5070511;28;20102;-71
2022/10/06 02:31:00;;;;;;;6.55;1.73;;;12.80;99.90;;;;;;5071631;28;20041;-71
2022/10/06 02:33:26;;;;;;;8.65;3.22;;;12.80;99.90;;;;;;5071541;28;20040;-71
2022/10/06 02:35:55;;;;;;;9.07;1.98;;;12.80;99.90;;;;;;5070698;28;20566;-71
2022/10/06 02:38:21;;;;;;;11.05;2.65;;;12.80;99.90;;;;;;5071741;28;20124;-71
2022/10/06 02:40:46;;;;;;;10.70;1.60;;;12.80;99.90;;;;;;5070617;28;20115;-70
2022/10/06 02:43:12;;;;;;;8.63;2.05;;;12.70;99.90;;;;;;5071164;28;20516;-71
2022/10/06 02:45:37;;;;;;;7.05;1.42;;;12.70;99.90;;;;;;5070577;28;20071;-71
2022/10/06 02:48:03;;;;;;;12.65;2.30;;;12.60;99.90;;;;;;5071761;28;20516;-71
2022/10/06 02:50:28;;;;;;;9.65;1.75;;;12.70;99.90;;;;;;5070440;28;20048;-71
2022/10/06 02:52:54;;;;;;;10.90;1.50;;;12.60;99.90;;;;;;5071254;28;20037;-71
2022/10/06 02:55:20;;;;;;;9.48;1.70;;;12.70;99.90;;;;;;5070535;28;20050;-71
2022/10/06 02:57:45;;;;;;;14.73;2.83;;;12.70;99.90;;;;;;5071416;28;20036;-73
2022/10/06 03:00:11;;;;;;;8.15;2.35;;;12.70;99.90;;;;;;5074355;28;20111;-70
2022/10/06 03:02:37;;;;;;;10.90;1.83;;;12.50;99.90;;;;;;5075433;28;20394;-71
2022/10/06 03:05:03;;;;;;;8.55;2.47;;;12.60;99.90;;;;;;5075657;28;20052;-71
2022/10/06 03:07:28;;;;;;;9.48;1.90;;;12.60;99.90;;;;;;5074179;28;20090;-70
2022/10/06 03:09:54;;;;;;;10.55;1.85;;;12.50;99.90;;;;;;5075400;28;20036;-72
2022/10/06 03:12:20;;;;;;;9.43;1.77;;;12.50;99.90;;;;;;5073747;28;20064;-71
2022/10/06 03:14:45;;;;;;;8.20;1.85;;;12.50;99.90;;;;;;5075096;28;20036;-71
2022/10/06 03:17:11;;;;;;;10.52;2.40;;;12.40;99.90;;;;;;5075436;28;20087;-71
2022/10/06 03:19:36;;;;;;;6.45;1.67;;;12.50;99.90;;;;;;5074159;28;20060;-72
2022/10/06 03:22:04;;;;;;;8.05;2.00;;;12.50;99.90;;;;;;5075028;28;20049;-71
2022/10/06 03:24:30;;;;;;;9.43;1.60;;;12.50;99.90;;;;;;5074823;28;20040;-71
2022/10/06 03:26:56;;;;;;;8.02;2.03;;;12.50;99.90;;;;;;5073953;28;20040;-71
2022/10/06 03:29:22;;;;;;;10.65;2.35;;;12.50;99.90;;;;;;5073980;28;20040;-71
2022/10/06 03:31:48;;;;;;;10.43;2.17;;;12.40;99.90;;;;;;5074488;28;20043;-72
2022/10/06 03:34:13;;;;;;;9.27;1.75;;;12.30;99.90;;;;;;5074615;28;20040;-72
2022/10/06 03:36:39;;;;;;;6.28;2.10;;;12.40;99.90;;;;;;5073532;28;20036;-71
2022/10/06 03:39:05;;;;;;;7.60;1.73;;;12.30;99.90;;;;;;5073312;28;20033;-72
2022/10/06 03:41:33;;;;;;;9.25;2.35;;;12.20;99.90;;;;;;5073147;28;20036;-72
2022/10/06 03:43:59;;;;;;;11.05;2.33;;;12.20;99.90;;;;;;5074435;28;20112;-71
2022/10/06 03:46:27;;;;;;;7.57;1.63;;;12.20;99.90;;;;;;5074904;28;20044;-71
2022/10/06 03:48:52;;;;;;;7.80;1.70;;;12.20;99.90;;;;;;5074760;28;20048;-71
2022/10/06 03:51:26;;;;;;;6.68;1.40;;;12.30;99.90;;;;;;5074301;28;20135;-71
2022/10/06 03:53:52;;;;;;;17.67;3.90;;;12.30;99.90;;;;;;5074193;28;20036;-71
2022/10/06 03:56:32;;;;;;;9.55;2.78;;;12.20;99.90;;;;;;5074645;28;20037;-72
2022/10/06 03:58:59;;;;;;;7.65;2.40;;;12.30;99.90;;;;;;5073546;28;20508;-72
2022/10/06 04:01:41;;;;;;;9.25;1.35;;;12.10;99.90;;;;;;5074510;28;20036;-71
2022/10/06 04:04:07;;;;;;;8.10;2.17;;;12.20;99.90;;;;;;5072844;28;20045;-71
2022/10/06 04:06:35;;;;;;;9.45;1.95;;;12.20;99.90;;;;;;5074219;28;20670;-71
2022/10/06 04:09:03;;;;;;;9.57;1.80;;;12.10;99.90;;;;;;5072394;28;20437;-72
2022/10/06 04:11:31;;;;;;;12.88;1.73;;;12.10;99.90;;;;;;5074117;28;20037;-71
2022/10/06 04:14:03;;;;;;;7.53;1.73;;;12.10;99.90;;;;;;5072728;28;20048;-71
2022/10/06 04:16:31;;;;;;;6.75;1.40;;;12.20;99.90;;;;;;5072765;28;20518;-71
2022/10/06 04:18:59;;;;;;;9.65;2.13;;;12.10;99.90;;;;;;5073935;28;20029;-71
2022/10/06 04:21:25;;;;;;;4.75;1.77;;;12.10;99.90;;;;;;5074216;28;20048;-71
2022/10/06 04:23:52;;;;;;;12.27;1.98;;;12.10;99.90;;;;;;5073889;28;20452;-71
2022/10/06 04:26:19;;;;;;;7.07;1.90;;;12.00;99.90;;;;;;5072898;28;20052;-72
2022/10/06 04:28:45;;;;;;;8.27;1.38;;;12.10;99.90;;;;;;5072711;28;20040;-71
2022/10/06 04:31:14;;;;;;;9.13;2.38;;;12.10;99.90;;;;;;5073804;28;20045;-71
2022/10/06 04:33:40;;;;;;;10.70;1.92;;;12.10;99.90;;;;;;5073456;28;20116;-71
2022/10/06 04:36:07;;;;;;;10.60;2.08;;;12.00;99.90;;;;;;5074056;28;20116;-72
2022/10/06 04:38:34;;;;;;;10.07;2.30;;;12.00;99.90;;;;;;5073903;28;20033;-71
2022/10/06 04:41:07;;;;;;;8.85;2.53;;;12.00;99.90;;;;;;5073996;28;20119;-71
2022/10/06 04:43:36;;;;;;;;;;;12.00;99.90;;;;;;5072601;28;20562;-72
2022/10/06 04:46:02;;;;;;;7.00;2.10;;;11.90;99.90;;;;;;5073389;28;20322;-71
2022/10/06 04:48:29;;;;;;;9.90;2.28;;;12.00;99.90;;;;;;5055716;28;20048;-71
2022/10/06 04:50:55;;;;;;;11.35;2.03;;;11.90;99.90;;;;;;5073660;28;20375;-72
2022/10/06 04:53:21;;;;;;;6.65;2.10;;;12.00;99.90;;;;;;5071916;28;20048;-71
2022/10/06 04:55:47;;;;;;;7.15;2.20;;;12.00;99.90;;;;;;5072343;28;20047;-71
2022/10/06 04:58:12;;;;;;;12.32;2.53;;;12.00;99.90;;;;;;5073406;28;20510;-72
2022/10/06 05:00:38;;;;;;;12.93;2.20;;;11.90;99.90;;;;;;5073249;28;20036;-71
2022/10/06 05:03:04;;;;;;;10.07;2.83;;;11.90;99.90;;;;;;5073041;28;20393;-73
2022/10/06 05:05:29;;;;;;;9.63;2.15;;;11.80;99.90;;;;;;5073208;28;20032;-71
2022/10/06 05:07:55;;;;;;;13.52;2.80;;;11.90;99.90;;;;;;5071901;28;20148;-71
2022/10/06 05:10:20;;;;;;;13.27;2.85;;;11.80;99.90;;;;;;5073106;28;20049;-72
2022/10/06 05:12:46;;;;;;;12.48;2.15;;;11.90;99.90;;;;;;5071233;28;20052;-71
2022/10/06 05:15:12;;;;;;;7.18;1.88;;;11.80;99.90;;;;;;5072975;28;20080;-71
2022/10/06 05:17:37;;;;;;;8.02;1.85;;;11.90;99.90;;;;;;5072902;28;20033;-72
2022/10/06 05:20:03;;;;;;;7.85;2.15;;;11.90;99.90;;;;;;5071572;28;20040;-73
2022/10/06 05:22:29;;;;;;;9.10;2.35;;;11.80;99.90;;;;;;5071763;28;20098;-73
2022/10/06 05:24:54;;;;;;;10.30;1.90;;;11.80;99.90;;;;;;5072855;28;20040;-71
2022/10/06 05:27:20;;;;;;;12.60;2.05;;;11.90;99.90;;;;;;5072894;28;20082;-71
2022/10/06 05:29:46;;;;;;;7.40;1.45;;;11.80;99.90;;;;;;5072530;28;20040;-72
2022/10/06 05:32:12;;;;;;;8.52;2.08;;;11.80;99.90;;;;;;5071075;28;20055;-71
2022/10/06 05:34:37;;;;;;;11.57;2.35;;;11.70;99.90;;;;;;5072432;28;20032;-72
2022/10/06 05:37:03;;;;;;;13.18;2.17;;;11.80;99.90;;;;;;5071768;28;20044;-71
2022/10/06 05:39:28;;;;;;;9.48;2.15;;;11.80;99.90;;;;;;5072547;28;20498;-71
2022/10/06 05:41:54;;;;;;;7.78;1.52;;;11.80;99.90;;;;;;5072375;28;20036;-72
2022/10/06 05:44:20;;;;;;;9.15;1.60;;;11.80;99.90;;;;;;5072170;28;20033;-71
2022/10/06 05:46:46;;;;;;;10.50;1.90;;;11.90;99.90;;;;;;5072320;28;20513;-71
2022/10/06 05:49:12;;;;;;;9.95;2.70;;;11.80;99.90;;;;;;5072499;28;20036;-73
2022/10/06 05:51:41;;;;;;;14.50;2.25;;;11.80;99.90;;;;;;5072346;28;20041;-72
2022/10/06 05:54:06;;;;;;;11.73;1.83;;;11.80;99.90;;;;;;5071945;28;20405;-72
2022/10/06 05:56:36;;;;;;;9.48;2.00;;;11.80;99.90;;;;;;5070920;28;20037;-71
2022/10/06 05:59:03;;;;;;;16.05;3.13;;;11.70;99.90;;;;;;5072203;28;20047;-71
2022/10/06 06:01:36;;;;;;;9.65;2.58;;;11.70;99.90;;;;;;5071068;28;20047;-72
2022/10/06 06:04:04;;;;;;;10.45;2.35;;;11.80;99.90;;;;;;5072031;28;20123;-71
2022/10/06 06:06:35;;;;;;;10.95;1.80;;;11.80;99.90;;;;;;5070853;28;20040;-71
2022/10/06 06:09:07;;;;;;;7.68;1.98;;;11.70;99.90;;;;;;5071962;28;20040;-72
2022/10/06 06:11:34;;;;;;;10.30;2.42;;;11.90;99.90;;;;;;5071677;28;20047;-71
2022/10/06 06:14:05;;;;;;;9.75;2.45;;;11.80;99.90;;;;;;5071673;28;20041;-71
2022/10/06 06:16:31;;;;;;;12.68;2.65;;;11.80;99.90;;;;;;5070660;28;20040;-72
2022/10/06 06:18:58;;;;;;;12.85;3.30;;;11.90;99.90;;;;;;5070619;28;20120;-71
2022/10/06 06:21:24;;;;;;;10.15;2.33;;;12.00;99.90;;;;;;5071876;28;20051;-71
2022/10/06 06:23:49;;;;;;;14.57;2.35;;;12.00;99.90;;;;;;5070294;28;20123;-71
2022/10/06 06:26:18;;;;;;;12.60;2.63;;;12.10;99.90;;;;;;5071673;28;20075;-71
2022/10/06 06:28:49;;;;;;;7.68;1.90;;;12.20;99.90;;;;;;5071895;28;20059;-71
2022/10/06 06:31:26;;;;;;;12.27;2.70;;;12.40;99.90;;;;;;5070445;28;20056;-71
2022/10/06 06:33:55;;;;;;;8.93;2.42;;;12.20;99.90;;;;;;5071124;28;20036;-71
2022/10/06 06:36:24;;;;;;;14.40;2.85;;;12.20;99.90;;;;;;5071696;28;20426;-73
2022/10/06 06:38:52;;;;;;;9.95;1.90;;;12.10;99.90;;;;;;5070582;28;20048;-71
2022/10/06 06:41:26;;;;;;;16.08;2.35;;;12.10;99.90;;;;;;5070412;28;20095;-71
2022/10/06 06:43:52;;;;;;;10.13;1.70;;;12.10;99.90;;;;;;5070074;28;20089;-71
2022/10/06 06:46:22;;;;;;;11.35;2.08;;;12.20;99.90;;;;;;5071443;28;20051;-71
2022/10/06 06:48:49;;;;;;;9.30;2.17;;;12.40;99.90;;;;;;5070561;28;20053;-70
2022/10/06 06:51:15;;;;;;;8.65;1.60;;;12.40;99.90;;;;;;5071238;28;20044;-70
2022/10/06 06:53:41;;;;;;;13.23;1.85;;;12.50;99.90;;;;;;5071311;28;20039;-70
2022/10/06 06:56:08;;;;;;;11.35;2.55;;;12.80;99.90;;;;;;5070814;28;20031;-70
2022/10/06 06:58:34;;;;;;;13.25;2.42;;;12.80;99.90;;;;;;5071079;28;20044;-71
2022/10/06 07:01:12;;;;;;;9.73;3.13;;;13.10;99.90;;;;;;5071427;28;20033;-71
2022/10/06 07:03:40;;;;;;;13.32;2.35;;;13.20;99.90;;;;;;5069639;28;20037;-70
2022/10/06 07:06:08;;;;;;;8.05;1.77;;;13.30;99.90;;;;;;5069929;28;20040;-70
2022/10/06 07:08:35;;;;;;;9.50;2.05;;;13.50;99.90;;;;;;5071465;28;20048;-71
2022/10/06 07:11:15;;;;;;;7.65;2.08;;;13.70;99.90;;;;;;5071328;28;20133;-70
2022/10/06 07:13:41;;;;;;;13.43;2.00;;;13.60;99.90;;;;;;5069855;28;20131;-70
2022/10/06 07:27:09;;;;;;;12.55;1.95;;;14.30;99.90;;;;;;5071022;28;20125;-70
2022/10/06 07:29:35;;;;;;;9.98;2.25;;;14.50;99.90;;;;;;5071280;28;20062;-70
2022/10/06 07:32:00;;;;;;;11.82;2.63;;;14.60;99.90;;;;;;5069686;28;20048;-71
2022/10/06 07:34:29;;;;;;;7.47;2.35;;;14.60;99.90;;;;;;5070798;28;20037;-71
2022/10/06 07:36:55;;;;;;;13.57;2.30;;;14.80;99.90;;;;;;5070944;28;20040;-70
2022/10/06 07:39:21;;;;;;;12.38;3.20;;;14.90;99.90;;;;;;5070993;28;20052;-70
2022/10/06 07:41:46;;;;;;;9.70;2.20;;;14.90;99.90;;;;;;5070830;28;20048;-70
2022/10/06 07:44:12;;;;;;;10.98;2.03;;;15.10;99.90;;;;;;5071025;28;20053;-72
2022/10/06 07:46:37;;;;;;;13.10;2.13;;;15.30;99.90;;;;;;5074653;28;20036;-70
2022/10/06 07:49:03;;;;;;;12.45;2.70;;;15.30;99.90;;;;;;5074697;28;20047;-70
2022/10/06 07:51:28;;;;;;;11.82;3.28;;;15.40;99.90;;;;;;5072860;28;20040;-70
2022/10/06 07:53:54;;;;;;;9.70;2.05;;;15.30;99.90;;;;;;5072500;28;20043;-70
2022/10/06 07:56:20;;;;;;;9.65;2.40;;;15.40;99.90;;;;;;5074597;28;20043;-69
2022/10/06 07:58:46;;;;;;;10.43;1.90;;;15.40;99.90;;;;;;5073590;28;20443;-69
2022/10/06 08:01:14;;;;;;;16.15;2.83;;;15.50;99.90;;;;;;5073691;28;20044;-71
2022/10/06 08:03:41;;;;;;;10.88;2.00;;;15.70;99.90;;;;;;5070248;28;20123;-70
2022/10/06 08:06:15;;;;;;;9.10;2.05;;;15.80;99.90;;;;;;5073859;28;20044;-70
2022/10/06 08:08:42;;;;;;;9.55;2.13;;;15.90;99.90;;;;;;5073513;28;20405;-69
2022/10/06 08:11:10;;;;;;;11.82;1.88;;;16.00;99.90;;;;;;5072119;28;20051;-69
2022/10/06 08:13:38;;;;;;;14.48;2.92;;;16.00;99.90;;;;;;5073293;28;20036;-69
2022/10/06 08:16:13;;;;;;;13.63;2.15;;;16.20;99.90;;;;;;5073657;28;20037;-69
2022/10/06 08:18:39;;;;;;;12.93;2.25;;;16.20;99.90;;;;;;5069072;28;20028;-71
2022/10/06 08:21:12;;;;;;;14.35;2.42;;;16.30;99.90;;;;;;5073985;28;20044;-70
2022/10/06 08:23:41;;;;;;;7.72;1.90;;;16.30;99.90;;;;;;5072500;28;20083;-69
2022/10/06 08:26:08;;;;;;;8.20;2.40;;;16.40;99.90;;;;;;5072542;28;20044;-70
2022/10/06 08:28:35;;;;;;;7.38;2.25;;;16.30;99.90;;;;;;5073810;28;20045;-69
2022/10/06 08:31:11;;;;;;;11.27;2.08;;;16.40;99.90;;;;;;5073624;28;20089;-70
2022/10/06 08:33:41;;;;;;;11.07;2.50;;;16.40;99.90;;;;;;5073601;28;20093;-69
2022/10/06 08:36:13;;;;;;;14.10;2.13;;;16.50;99.90;;;;;;5073835;28;20158;-70
2022/10/06 08:38:39;;;;;;;11.15;2.05;;;16.50;99.90;;;;;;5072712;28;20539;-70
2022/10/06 08:41:27;;;;;;;11.18;2.67;;;16.40;99.90;;;;;;5073634;28;20036;-72
2022/10/06 08:44:06;;;;;;;7.82;1.73;;;16.40;99.90;;;;;;5073450;28;20044;-70
2022/10/06 08:46:43;;;;;;;15.10;2.35;;;16.40;99.90;;;;;;5073631;28;20045;-71
2022/10/06 08:49:17;;;;;;;10.65;2.63;;;16.40;99.90;;;;;;5072232;28;20041;-70
2022/10/06 08:51:43;;;;;;;10.40;2.03;;;16.20;99.90;;;;;;5073393;28;20112;-70
2022/10/06 08:54:23;;;;;;;11.00;1.85;;;16.30;99.90;;;;;;5070951;28;20722;-69
2022/10/06 08:57:10;;;;;;;14.88;2.20;;;16.00;99.90;;;;;;5070083;28;20170;-70
2022/10/06 08:59:36;;;;;;;13.65;2.25;;;16.10;99.90;;;;;;5071605;28;20046;-70
2022/10/06 09:02:06;;;;;;;11.75;1.77;;;16.10;99.90;;;;;;5072105;28;20131;-71
2022/10/06 09:04:33;;;;;;;7.97;1.63;;;16.00;99.90;;;;;;5072348;28;20655;-69
2022/10/06 09:07:23;;;;;;;13.38;2.78;;;16.00;99.90;;;;;;5071707;28;20409;-70
2022/10/06 09:10:23;;;;;;;11.90;1.98;;;15.90;99.90;;;;;;5070540;28;20040;-70
2022/10/06 09:12:56;;;;;;;10.02;2.67;;;15.90;99.90;;;;;;5070985;28;20043;-69
2022/10/06 09:15:24;;;;;;;13.27;3.85;;;15.80;99.90;;;;;;5071022;28;20045;-69
2022/10/06 09:18:00;;;;;;;10.70;2.22;;;15.80;99.90;;;;;;5072648;28;20032;-71
2022/10/06 09:20:35;;;;;;;7.82;1.75;;;15.70;99.30;;;;;;5070012;28;20044;-71
2022/10/06 09:23:04;;;;;;;10.52;2.28;;;15.80;99.90;;;;;;5066455;28;20391;-70
2022/10/06 09:25:30;;;;;;;6.68;1.60;;;15.80;99.80;;;;;;5072262;28;20083;-69
2022/10/06 09:27:57;;;;;;;12.20;1.98;;;15.70;99.20;;;;;;5069787;28;20094;-69
2022/10/06 09:30:23;;;;;;;9.27;1.92;;;15.70;98.90;;;;;;5072525;28;20113;-70
2022/10/06 09:32:57;;;;;;;9.20;2.05;;;15.70;99.20;;;;;;5070557;28;20482;-70
2022/10/06 09:35:25;;;;;;;9.48;1.88;;;15.80;99.90;;;;;;5052681;28;20044;-70
2022/10/06 09:38:03;;;;;;;5.65;1.50;;;15.70;99.50;;;;;;5063474;28;20032;-69
2022/10/06 09:40:49;;;;;;;6.60;1.80;;;15.70;99.40;;;;;;5071050;28;20048;-69
2022/10/06 09:43:21;;;;;;;11.18;1.80;;;15.70;99.20;;;;;;5072150;28;20111;-70
2022/10/06 09:45:46;;;;;;;11.57;2.15;;;15.70;99.90;;;;;;5071209;28;20036;-70
2022/10/06 09:48:22;;;;;;;10.73;3.03;;;15.80;99.90;;;;;;5072319;28;20225;-70
2022/10/06 09:51:12;;;;;;;9.02;1.80;;;15.70;99.00;;;;;;5072511;28;20045;-70
2022/10/06 09:53:39;;;;;;;7.07;1.70;;;15.80;99.80;;;;;;5072121;28;20132;-70
2022/10/06 09:56:17;;;;;;;13.77;1.95;;;15.80;99.70;;;;;;5072318;28;20113;-70
2022/10/06 09:58:55;;;;;;;8.32;1.58;;;15.80;99.50;;;;;;5070822;28;20044;-70
2022/10/06 10:01:26;;;;;;;7.03;1.67;;;15.80;99.30;;;;;;5072336;28;20067;-70
2022/10/06 10:03:59;;;;;;;5.78;1.40;;;15.90;99.00;;;;;;5071960;28;20479;-70
2022/10/06 10:06:30;;;;;;;11.18;2.17;;;15.90;98.70;;;;;;5072119;28;20048;-70
2022/10/06 10:09:27;;;;;;;12.80;2.25;;;15.90;98.50;;;;;;5071681;28;20413;-70
2022/10/06 10:12:23;;;;;;;14.05;2.45;;;15.90;98.60;;;;;;5071923;28;20651;-69
2022/10/06 10:14:50;;;;;;;10.05;1.85;;;15.90;99.00;;;;;;5071727;28;20040;-70
2022/10/06 10:17:38;;;;;;;7.40;1.40;;;16.00;99.70;;;;;;5071866;28;20098;-69
2022/10/06 10:20:21;;;;;;;10.15;2.25;;;16.10;99.10;;;;;;5071610;28;20059;-70
2022/10/06 10:22:47;;;;;;;10.05;2.50;;;16.00;99.10;;;;;;5071598;28;20055;-70
2022/10/06 10:25:28;;;;;;;10.27;1.38;;;16.00;99.30;;;;;;5071994;28;20044;-70
2022/10/06 10:28:14;;;;;;;10.70;2.97;;;16.00;99.20;;;;;;5071780;28;20751;-70
2022/10/06 10:31:14;;;;;;;7.38;1.58;;;16.00;98.30;;;;;;5071989;28;20048;-69
2022/10/06 10:33:54;;;;;;;6.15;1.52;;;16.00;99.00;;;;;;5071465;28;20094;-70
2022/10/06 10:36:27;;;;;;;7.10;1.25;;;15.90;97.00;;;;;;5070466;28;20048;-70
2022/10/06 10:38:53;;;;;;;;;;;16.00;97.70;;;;;;5071020;28;20040;-70
2022/10/06 10:41:24;;;;;;;11.52;2.25;;;15.90;97.60;;;;;;5071675;28;19916;-70
2022/10/06 10:44:04;;;;;;;8.15;1.35;;;16.00;97.50;;;;;;5071436;28;20064;-70
2022/10/06 10:46:38;;;;;;;8.60;1.20;;;16.10;97.60;;;;;;5071574;28;20414;-70
2022/10/06 10:49:17;;;;;;;10.38;1.83;;;16.10;97.10;;;;;;5071771;28;20094;-70
2022/10/06 10:52:06;;;;;;;9.52;2.00;;;16.10;97.10;;;;;;5071358;28;20506;-71
2022/10/06 10:55:02;;;;;;;7.18;1.45;;;16.10;96.40;;;;;;5069959;28;20058;-70
2022/10/06 10:57:35;;;;;;;6.72;1.45;;;16.00;96.20;;;;;;5071474;28;20036;-69
2022/10/06 11:00:03;;;;;;;;;;;16.10;95.90;;;;;;5070907;28;20375;-69
2022/10/06 11:02:29;;;;;;;9.02;1.85;;;16.00;95.80;;;;;;5069807;28;20460;-69
2022/10/06 11:05:04;;;;;;;5.78;1.73;;;16.00;95.70;;;;;;5071475;28;20111;-70
2022/10/06 11:07:29;;;;;;;8.23;1.85;;;16.10;96.00;;;;;;5071281;28;20045;-69
2022/10/06 11:10:29;;;;;;;7.35;1.67;;;16.20;96.40;;;;;;5071495;28;20036;-72
2022/10/06 11:13:09;;;;;;;6.47;1.38;;;16.20;96.80;;;;;;5069502;28;20040;-74
2022/10/06 11:15:53;;;;;;;10.70;1.27;;;16.30;95.10;;;;;;5069944;28;20033;-73
2022/10/06 11:18:44;;;;;;;8.27;1.80;;;16.30;95.20;;;;;;5069183;28;20040;-72
2022/10/06 11:21:41;;;;;;;8.55;1.25;;;16.30;95.60;;;;;;5073506;28;20070;-74
2022/10/06 11:24:18;;;;;;;8.10;1.20;;;16.30;96.20;;;;;;5049191;28;20057;-72
2022/10/06 11:27:12;;;;;;;7.30;1.30;;;16.30;95.60;;;;;;5074158;28;20070;-73
2022/10/06 11:29:56;;;;;;;6.25;1.65;;;16.30;94.80;;;;;;5075182;28;20098;-73
2022/10/06 11:32:43;;;;;;;17.23;1.80;;;16.20;94.60;;;;;;5074541;28;20044;-76
2022/10/06 11:35:20;;;;;;;6.95;1.30;;;16.10;93.60;;;;;;5073631;28;20037;-73
2022/10/06 11:37:52;;;;;;;12.38;1.52;;;16.10;94.00;;;;;;5074036;28;20044;-74
2022/10/06 11:40:48;;;;;;;5.40;1.08;;;16.10;94.50;;;;;;5075064;28;20076;-73
2022/10/06 11:43:47;;;;;;;4.57;1.30;;;16.00;94.40;;;;;;5073244;28;20090;-74
2022/10/06 11:46:20;;;;;;;9.75;1.90;;;16.10;94.60;;;;;;5074900;28;20473;-73
2022/10/06 11:48:46;;;;;;;8.45;1.75;;;16.10;94.60;;;;;;5073589;28;20044;-74
2022/10/06 11:51:25;;;;;;;8.43;1.30;;;16.10;93.90;;;;;;5073110;28;20469;-74
2022/10/06 11:53:51;;;;;;;8.35;1.08;;;16.10;94.90;;;;;;5072900;28;20631;-74
2022/10/06 11:56:16;;;;;;;7.55;1.00;;;15.90;94.60;;;;;;5073186;28;20111;-73
2022/10/06 11:58:54;;;;;;;7.95;1.02;;;15.90;94.20;;;;;;5073380;28;20127;-74
2022/10/06 12:01:42;;;;;;;3.65;1.08;;;15.90;94.00;;;;;;5073093;28;20091;-74
2022/10/06 12:04:08;;;;;;;5.25;1.35;;;15.90;93.50;;;;;;5072892;28;20044;-75
2022/10/06 12:06:45;;;;;;;6.07;1.10;;;15.90;93.60;;;;;;5073401;28;20068;-73
2022/10/06 12:09:30;;;;;;;3.92;1.00;;;16.00;93.20;;;;;;5073018;28;20037;-74
2022/10/06 12:12:17;;;;;;;7.80;1.13;;;16.10;93.40;;;;;;5072720;28;20043;-75
2022/10/06 12:14:43;;;;;;;6.25;1.10;;;16.10;92.90;;;;;;5073096;28;20083;-73
2022/10/06 12:17:30;;;;;;;7.80;1.10;;;16.10;92.40;;;;;;5073186;28;20087;-74
2022/10/06 12:20:07;;;;;;;9.80;1.63;;;16.10;92.80;;;;;;5056179;28;20082;-73
2022/10/06 12:22:47;;;;;;;7.72;1.60;;;16.10;94.10;;;;;;5073574;28;20413;-73
2022/10/06 12:25:23;;;;;;;7.63;1.98;;;16.10;93.30;;;;;;5072768;28;20052;-73
2022/10/06 12:28:19;;;;;;;8.93;1.23;;;16.20;93.60;;;;;;5072821;28;20098;-74
2022/10/06 12:31:22;;;;;;;5.97;1.02;;;16.20;93.70;;;;;;5072444;28;20433;-74
2022/10/06 12:33:49;;;;;;;8.38;1.25;;;16.20;93.10;;;;;;5072641;28;20486;-73
2022/10/06 12:36:35;;;;;;;6.53;1.00;;;16.20;93.90;;;;;;5074008;28;20120;-74
2022/10/06 12:39:01;;;;;;;4.25;0.93;;;16.20;93.70;;;;;;5072148;28;20041;-74
2022/10/06 12:41:59;;;;;;;6.90;1.25;;;16.30;94.20;;;;;;5072594;28;20052;-74
2022/10/06 12:44:48;;;;;;;10.23;1.40;;;16.30;93.80;;;;;;5072027;28;20143;-73
2022/10/06 12:47:44;;;;;;;3.00;1.00;;;16.30;93.60;;;;;;5073646;28;20051;-73
2022/10/06 12:50:24;;;;;;;12.20;3.13;;;16.20;92.70;;;;;;5060649;28;20057;-73
2022/10/06 12:52:59;;;;;;;4.15;1.17;;;16.20;93.10;;;;;;5071873;28;20394;-74
2022/10/06 12:55:48;;;;;;;7.45;1.58;;;16.20;92.80;;;;;;5073497;28;20127;-73
2022/10/06 12:58:19;;;;;;;6.03;0.93;;;16.10;93.50;;;;;;5072212;28;20429;-75
2022/10/06 13:00:45;;;;;;;4.25;0.88;;;16.10;93.70;;;;;;5072063;28;20037;-74
2022/10/06 13:03:23;;;;;;;4.28;1.23;;;16.20;93.70;;;;;;5071707;28;20039;-73
2022/10/06 13:05:56;;;;;;;10.23;2.05;;;16.10;92.00;;;;;;5072074;28;20551;-73
2022/10/06 13:08:29;;;;;;;5.15;1.20;;;16.20;91.70;;;;;;5072135;28;20040;-73
2022/10/06 13:11:21;;;;;;;5.75;1.10;;;16.20;90.50;;;;;;5071841;28;20037;-73
2022/10/06 13:13:49;;;;;;;9.40;1.33;;;16.20;91.10;;;;;;5071861;28;20484;-73